Time;durP1;ratioP1;P1;durP2;ratioP2;P2;SDS_P1;SDS_P2;PMS_P1;PMS_P2;Temp;Humidity;BMP_temperature;BMP_pressure;BME280_temperature;BME280_humidity;BME280_pressure;Samples;Min_cycle;Max_cycle;Signal;HPM_P1;HPM_P2
2023/01/28 00:00:19;;;;;;;4.77;1.47;;;1.40;99.90;;;;;;4996082;28;20217;-80
2023/01/28 00:02:48;;;;;;;3.20;1.40;;;1.40;99.90;;;;;;4993641;28;20305;-80
2023/01/28 00:05:15;;;;;;;2.57;1.30;;;1.40;99.90;;;;;;5001766;28;20222;-80
2023/01/28 00:07:41;;;;;;;3.20;1.80;;;1.40;99.90;;;;;;4999335;28;20982;-80
2023/01/28 00:10:11;;;;;;;2.07;1.30;;;1.40;99.90;;;;;;4987713;28;20785;-79
2023/01/28 00:12:38;;;;;;;4.97;1.37;;;1.40;99.90;;;;;;5000593;28;20768;-80
2023/01/28 00:15:06;;;;;;;2.63;1.20;;;1.40;99.90;;;;;;4992223;28;20226;-80
2023/01/28 00:17:33;;;;;;;5.33;3.27;;;1.40;99.90;;;;;;4998076;28;20678;-80
2023/01/28 00:20:03;;;;;;;3.70;2.13;;;1.40;99.90;;;;;;4997359;28;20301;-80
2023/01/28 00:22:30;;;;;;;2.27;1.60;;;1.40;99.90;;;;;;5001138;28;20251;-80
2023/01/28 00:24:57;;;;;;;3.00;1.50;;;1.40;99.90;;;;;;4998504;28;20321;-80
2023/01/28 00:27:23;;;;;;;2.10;1.20;;;1.40;99.90;;;;;;4999680;28;20235;-80
2023/01/28 00:29:50;;;;;;;1.87;1.37;;;1.40;99.90;;;;;;5003972;28;20217;-80
2023/01/28 00:32:17;;;;;;;1.73;1.20;;;1.40;99.90;;;;;;4998925;28;20292;-80
2023/01/28 00:34:44;;;;;;;2.73;1.43;;;1.40;99.90;;;;;;4998832;28;20905;-80
2023/01/28 00:37:12;;;;;;;2.40;1.13;;;1.40;99.90;;;;;;4999905;28;20219;-80
2023/01/28 00:39:44;;;;;;;2.10;1.10;;;1.40;99.90;;;;;;4994508;28;20249;-80
2023/01/28 00:42:11;;;;;;;4.40;1.00;;;1.40;99.90;;;;;;4995913;28;20228;-80
2023/01/28 00:44:38;;;;;;;2.13;1.37;;;1.40;99.90;;;;;;4996823;28;20252;-80
2023/01/28 00:47:05;;;;;;;3.17;1.20;;;1.40;99.90;;;;;;4995102;28;20229;-80
2023/01/28 00:49:32;;;;;;;1.87;1.03;;;1.40;99.90;;;;;;5002665;28;20228;-86
2023/01/28 00:51:58;;;;;;;2.27;1.13;;;1.40;99.90;;;;;;5005597;28;20237;-83
2023/01/28 00:54:27;;;;;;;2.87;1.20;;;1.40;99.90;;;;;;5000329;28;20866;-81
2023/01/28 00:56:53;;;;;;;5.43;1.33;;;1.40;99.90;;;;;;5004134;28;20220;-81
2023/01/28 00:59:20;;;;;;;2.60;1.20;;;1.30;99.90;;;;;;5003254;28;20238;-82
2023/01/28 01:01:48;;;;;;;2.97;1.37;;;1.30;99.90;;;;;;4996611;28;20229;-81
2023/01/28 01:04:25;;;;;;;1.73;1.03;;;1.30;99.90;;;;;;4996051;28;20261;-79
2023/01/28 01:06:56;;;;;;;1.73;0.90;;;1.40;99.90;;;;;;5004928;28;20228;-80
2023/01/28 01:09:23;;;;;;;2.73;0.97;;;1.40;99.90;;;;;;5002197;28;20231;-80
2023/01/28 01:11:54;;;;;;;2.60;1.10;;;1.40;99.90;;;;;;5002113;28;20226;-81
2023/01/28 01:14:21;;;;;;;1.57;1.23;;;1.40;99.90;;;;;;5001858;28;20233;-81
2023/01/28 01:16:48;;;;;;;3.13;1.30;;;1.40;99.90;;;;;;5006719;28;20255;-80
2023/01/28 01:19:15;;;;;;;1.87;1.27;;;1.40;99.90;;;;;;5004281;28;20263;-78
2023/01/28 01:21:43;;;;;;;2.20;1.17;;;1.40;99.90;;;;;;5004218;28;20222;-80
2023/01/28 01:24:12;;;;;;;3.93;1.50;;;1.30;99.90;;;;;;4997359;28;20226;-78
2023/01/28 01:26:39;;;;;;;6.97;1.30;;;1.30;99.90;;;;;;4997404;28;20741;-79
2023/01/28 01:29:08;;;;;;;2.53;1.40;;;1.30;99.90;;;;;;5000351;28;20310;-79
2023/01/28 01:31:35;;;;;;;0.87;0.80;;;1.30;99.90;;;;;;5004356;28;20251;-80
2023/01/28 01:34:02;;;;;;;2.80;1.10;;;1.30;99.90;;;;;;5006039;28;20231;-80
2023/01/28 01:36:28;;;;;;;1.90;1.23;;;1.30;99.90;;;;;;4998652;28;20298;-80
2023/01/28 01:38:56;;;;;;;2.63;1.40;;;1.30;99.90;;;;;;5003543;28;20228;-80
2023/01/28 01:41:27;;;;;;;3.23;1.10;;;1.30;99.90;;;;;;5004555;28;20224;-80
2023/01/28 01:43:56;;;;;;;3.27;1.30;;;1.30;99.90;;;;;;5013785;28;20287;-80
2023/01/28 01:46:31;;;;;;;1.67;1.00;;;1.30;99.90;;;;;;5000047;28;20309;-80
2023/01/28 01:49:04;;;;;;;2.43;1.13;;;1.30;99.90;;;;;;5001811;28;20308;-80
2023/01/28 01:51:36;;;;;;;1.83;1.30;;;1.30;99.90;;;;;;5001157;28;20239;-80
2023/01/28 01:54:05;;;;;;;3.53;1.57;;;1.30;99.90;;;;;;4999766;28;21045;-80
2023/01/28 01:56:38;;;;;;;2.47;1.33;;;1.30;99.90;;;;;;5002768;28;20227;-80
2023/01/28 01:59:06;;;;;;;2.83;1.37;;;1.30;99.90;;;;;;5000804;28;20322;-80
2023/01/28 02:01:34;;;;;;;2.40;1.50;;;1.30;99.90;;;;;;4999302;28;20936;-80
2023/01/28 02:04:08;;;;;;;2.40;1.43;;;1.30;99.90;;;;;;5003823;28;20239;-80
2023/01/28 02:06:37;;;;;;;2.67;1.53;;;1.30;99.90;;;;;;4999939;28;20253;-81
2023/01/28 02:09:21;;;;;;;2.70;1.40;;;1.30;99.90;;;;;;4991663;28;20233;-80
2023/01/28 02:11:50;;;;;;;2.63;1.37;;;1.30;99.90;;;;;;5000384;28;20775;-80
2023/01/28 02:14:18;;;;;;;4.20;1.47;;;1.30;99.90;;;;;;4995297;28;20228;-80
2023/01/28 02:16:46;;;;;;;3.23;1.50;;;1.30;99.90;;;;;;5001608;28;20268;-81
2023/01/28 02:19:13;;;;;;;3.93;1.60;;;1.20;99.90;;;;;;5001358;28;20221;-81
2023/01/28 02:22:10;;;;;;;2.77;1.50;;;1.20;99.90;;;;;;4999490;28;20234;-81
2023/01/28 02:24:57;;;;;;;2.80;1.40;;;1.20;99.90;;;;;;4979024;28;20433;-81
2023/01/28 02:27:50;;;;;;;2.33;1.60;;;1.30;99.90;;;;;;4995519;28;20223;-82
2023/01/28 02:30:22;;;;;;;2.53;1.70;;;1.20;99.90;;;;;;5016477;28;20225;-81
2023/01/28 02:32:55;;;;;;;2.47;1.60;;;1.20;99.90;;;;;;5002802;28;20230;-82
2023/01/28 02:35:35;;;;;;;3.13;1.67;;;1.20;99.90;;;;;;5002905;28;20935;-82
2023/01/28 02:38:07;;;;;;;2.87;1.47;;;1.20;99.90;;;;;;5001703;28;20329;-81
2023/01/28 02:41:00;;;;;;;2.63;1.60;;;1.20;99.90;;;;;;5003189;28;20236;-81
2023/01/28 02:43:35;;;;;;;4.17;1.43;;;1.10;99.90;;;;;;5002762;28;20229;-82
2023/01/28 02:48:56;;;;;;;4.20;1.47;;;1.10;99.90;;;;;;4997178;28;20219;-81
2023/01/28 02:51:35;;;;;;;2.30;1.40;;;1.10;99.90;;;;;;5002813;28;20693;-81
2023/01/28 02:54:10;;;;;;;3.07;1.50;;;1.10;99.90;;;;;;5002565;28;20219;-81
2023/01/28 02:56:45;;;;;;;3.13;1.40;;;1.10;99.90;;;;;;5004242;28;20918;-81
2023/01/28 02:59:30;;;;;;;2.40;1.50;;;1.10;99.90;;;;;;4998313;28;20235;-81
2023/01/28 03:02:03;;;;;;;3.87;1.83;;;1.10;99.90;;;;;;5002069;28;20216;-81
2023/01/28 03:04:36;;;;;;;4.63;1.70;;;1.00;99.90;;;;;;4995317;28;20268;-81
2023/01/28 03:07:07;;;;;;;2.30;1.50;;;1.10;99.90;;;;;;5003404;28;20248;-80
2023/01/28 03:09:36;;;;;;;2.10;1.50;;;1.10;99.90;;;;;;5010711;28;20232;-82
2023/01/28 03:37:28;;;;;;;2.20;1.60;;;1.00;99.90;;;;;;4996801;28;20231;-82
2023/01/28 03:40:09;;;;;;;2.73;1.70;;;1.00;99.90;;;;;;5002599;28;20235;-82
2023/01/28 03:42:38;;;;;;;3.20;1.70;;;1.00;99.90;;;;;;5001716;28;20642;-82
2023/01/28 03:45:14;;;;;;;2.70;1.97;;;1.00;99.90;;;;;;5005164;28;20221;-83
2023/01/28 03:47:43;;;;;;;4.03;1.80;;;1.00;99.90;;;;;;5000516;28;20232;-83
2023/01/28 03:50:11;;;;;;;4.03;2.23;;;0.90;99.90;;;;;;4998342;28;20217;-81
2023/01/28 03:52:47;;;;;;;3.53;1.57;;;1.00;99.90;;;;;;4998591;28;20282;-82
2023/01/28 03:55:30;;;;;;;2.83;1.50;;;0.90;99.90;;;;;;5002123;28;20932;-82
2023/01/28 03:57:57;;;;;;;2.53;1.40;;;0.90;99.90;;;;;;4997437;28;20283;-81
2023/01/28 04:00:24;;;;;;;2.30;1.53;;;1.00;99.90;;;;;;4968750;28;20893;-81
2023/01/28 04:02:52;;;;;;;3.03;1.40;;;1.00;99.90;;;;;;4999648;28;20236;-82
2023/01/28 04:05:21;;;;;;;2.73;1.60;;;0.90;99.90;;;;;;4996479;28;20310;-81
2023/01/28 04:07:50;;;;;;;4.37;1.77;;;0.90;99.90;;;;;;4996919;28;20225;-81
2023/01/28 04:10:28;;;;;;;3.63;1.87;;;1.00;99.90;;;;;;5000187;28;20243;-81
2023/01/28 04:13:01;;;;;;;3.70;1.40;;;1.00;99.90;;;;;;5000766;28;20225;-81
2023/01/28 04:15:29;;;;;;;1.50;1.40;;;1.00;99.90;;;;;;4997351;28;20300;-81
2023/01/28 04:17:58;;;;;;;4.10;1.70;;;1.00;99.90;;;;;;5001426;28;20802;-81
2023/01/28 04:20:28;;;;;;;2.47;1.73;;;1.00;99.90;;;;;;4996579;28;20229;-81
2023/01/28 04:23:00;;;;;;;4.07;2.00;;;1.00;99.90;;;;;;4999176;28;20225;-81
2023/01/28 04:25:28;;;;;;;3.40;2.10;;;1.00;99.90;;;;;;4996757;28;20568;-81
2023/01/28 04:27:55;;;;;;;3.13;1.87;;;1.00;99.90;;;;;;4998688;28;20335;-79
2023/01/28 04:30:26;;;;;;;2.70;1.80;;;0.90;99.90;;;;;;4999263;28;20236;-81
2023/01/28 04:33:17;;;;;;;3.40;1.93;;;0.90;99.90;;;;;;4999140;28;20231;-79
2023/01/28 04:35:55;;;;;;;2.87;1.70;;;0.90;99.90;;;;;;4996822;28;20303;-79
2023/01/28 04:38:33;;;;;;;2.20;1.50;;;0.90;99.90;;;;;;5000919;28;20238;-77
2023/01/28 04:41:20;;;;;;;4.53;1.80;;;0.80;99.90;;;;;;5003157;28;20639;-79
2023/01/28 04:43:48;;;;;;;4.47;2.00;;;0.80;99.90;;;;;;4999787;28;20224;-79
2023/01/28 04:46:34;;;;;;;2.80;1.80;;;0.80;99.90;;;;;;4991732;28;20251;-80
2023/01/28 04:49:22;;;;;;;3.93;1.93;;;0.80;99.90;;;;;;4982584;28;20236;-80
2023/01/28 04:51:52;;;;;;;4.87;1.93;;;0.80;99.90;;;;;;4989722;28;20239;-80
2023/01/28 04:54:27;;;;;;;6.53;4.27;;;0.70;99.90;;;;;;4989811;28;20232;-81
2023/01/28 04:56:57;;;;;;;6.90;6.30;;;0.70;99.90;;;;;;4992360;28;20225;-78
2023/01/28 04:59:24;;;;;;;4.03;3.33;;;0.70;99.90;;;;;;4999079;28;20233;-79
2023/01/28 05:01:51;;;;;;;3.97;2.90;;;0.70;99.90;;;;;;4990296;28;20306;-78
2023/01/28 05:04:19;;;;;;;5.13;2.40;;;0.70;99.90;;;;;;5005887;28;20247;-78
2023/01/28 05:06:49;;;;;;;3.50;2.17;;;0.70;99.90;;;;;;4987806;28;20300;-78
2023/01/28 05:09:18;;;;;;;4.93;2.30;;;0.70;99.90;;;;;;4995220;28;20396;-77
2023/01/28 05:11:45;;;;;;;3.33;1.90;;;0.70;99.90;;;;;;5004498;28;20749;-77
2023/01/28 05:14:13;;;;;;;3.67;2.00;;;0.70;99.90;;;;;;5003685;28;20228;-78
2023/01/28 05:16:44;;;;;;;2.47;1.90;;;0.70;99.90;;;;;;5004616;28;20633;-78
2023/01/28 05:19:11;;;;;;;3.50;2.20;;;0.60;99.90;;;;;;5004006;28;20252;-77
2023/01/28 05:21:41;;;;;;;3.70;1.80;;;0.60;99.90;;;;;;5004689;28;20789;-78
2023/01/28 05:24:20;;;;;;;5.13;2.10;;;0.60;99.90;;;;;;5000288;28;20335;-78
2023/01/28 05:26:46;;;;;;;2.77;2.10;;;0.50;99.90;;;;;;5017496;28;20239;-78
2023/01/28 05:29:13;;;;;;;3.57;1.90;;;0.50;99.90;;;;;;5002765;28;20883;-78
2023/01/28 05:31:40;;;;;;;5.23;1.97;;;0.40;99.90;;;;;;5000815;28;20240;-78
2023/01/28 05:34:07;;;;;;;3.80;2.00;;;0.40;99.90;;;;;;5005467;28;20222;-78
2023/01/28 05:36:34;;;;;;;4.03;2.23;;;0.40;99.90;;;;;;5003344;28;20218;-80
2023/01/28 05:39:09;;;;;;;6.10;2.90;;;0.30;99.90;;;;;;4998882;28;20225;-80
2023/01/28 05:41:39;;;;;;;4.77;2.80;;;0.20;99.90;;;;;;5003293;28;20248;-80
2023/01/28 05:44:06;;;;;;;3.57;2.10;;;0.20;99.90;;;;;;5003905;28;20224;-80
2023/01/28 05:46:52;;;;;;;8.17;4.67;;;0.00;99.90;;;;;;5001575;28;20312;-80
2023/01/28 05:49:37;;;;;;;10.03;6.00;;;-0.10;99.90;;;;;;4997724;28;20443;-80
2023/01/28 05:52:27;;;;;;;5.67;2.80;;;-0.10;99.90;;;;;;5001144;28;20231;-79
2023/01/28 05:54:54;;;;;;;6.70;4.00;;;-0.30;99.90;;;;;;5000560;28;20244;-79
2023/01/28 05:57:23;;;;;;;5.10;3.40;;;-0.20;99.90;;;;;;4994591;28;20242;-79
2023/01/28 05:59:50;;;;;;;4.60;3.20;;;-0.40;99.90;;;;;;5001127;28;20235;-80
2023/01/28 06:02:17;;;;;;;3.27;2.67;;;-0.50;99.90;;;;;;5003923;28;20245;-79
2023/01/28 06:04:44;;;;;;;22.47;9.43;;;-0.60;99.90;;;;;;5001255;28;20221;-79
2023/01/28 06:07:14;;;;;;;15.60;6.80;;;-0.60;99.90;;;;;;4992278;28;20245;-79
2023/01/28 06:09:42;;;;;;;19.77;8.50;;;-0.60;99.90;;;;;;4999174;28;20270;-79
2023/01/28 06:12:09;;;;;;;22.20;12.03;;;-0.70;99.90;;;;;;4998743;28;20256;-79
2023/01/28 06:14:54;;;;;;;14.37;7.60;;;-0.70;99.90;;;;;;5000566;28;20324;-79
2023/01/28 06:17:39;;;;;;;8.33;4.63;;;-0.80;99.90;;;;;;4995305;28;20227;-79
2023/01/28 06:20:15;;;;;;;3.87;3.07;;;-0.80;99.90;;;;;;4998871;28;20224;-79
2023/01/28 06:22:42;;;;;;;6.40;3.80;;;-0.80;99.90;;;;;;5004855;28;20228;-79
2023/01/28 06:25:09;;;;;;;6.47;3.43;;;-0.80;99.90;;;;;;5011864;28;20221;-78
2023/01/28 06:27:36;;;;;;;5.37;4.00;;;-0.90;99.90;;;;;;5000615;28;20300;-78
2023/01/28 06:30:06;;;;;;;5.93;3.40;;;-0.90;99.90;;;;;;4996308;28;20283;-79
2023/01/28 06:32:32;;;;;;;4.13;3.00;;;-0.90;99.90;;;;;;5002905;28;20859;-78
2023/01/28 06:34:59;;;;;;;4.97;2.77;;;-1.00;99.90;;;;;;5001639;28;20230;-79
2023/01/28 06:37:26;;;;;;;3.57;2.50;;;-1.00;99.90;;;;;;5002226;28;20305;-79
2023/01/28 06:39:53;;;;;;;3.30;2.60;;;-1.00;99.90;;;;;;5001142;28;20354;-80
2023/01/28 06:42:20;;;;;;;4.77;2.83;;;-1.10;99.90;;;;;;4999001;28;20228;-79
2023/01/28 06:44:47;;;;;;;3.93;2.50;;;-1.10;99.90;;;;;;5002261;28;20670;-80
2023/01/28 06:47:15;;;;;;;3.47;2.60;;;-1.20;99.90;;;;;;4999624;28;20275;-79
2023/01/28 06:49:41;;;;;;;3.80;2.50;;;-1.20;99.90;;;;;;4996443;28;20232;-80
2023/01/28 06:52:08;;;;;;;2.97;2.67;;;-1.30;99.90;;;;;;5002539;28;20329;-80
2023/01/28 06:54:35;;;;;;;4.37;2.93;;;-1.30;99.90;;;;;;5002397;28;20228;-80
2023/01/28 06:57:01;;;;;;;5.07;3.90;;;-1.40;99.90;;;;;;5001667;28;20314;-80
2023/01/28 06:59:28;;;;;;;37.23;20.80;;;-1.50;99.90;;;;;;4999302;28;20254;-80
2023/01/28 07:01:55;;;;;;;19.60;12.03;;;-1.50;99.90;;;;;;4991393;28;20227;-80
2023/01/28 07:04:23;;;;;;;14.00;8.80;;;-1.50;99.90;;;;;;4996804;28;20232;-80
2023/01/28 07:06:49;;;;;;;9.13;5.40;;;-1.60;99.90;;;;;;5000447;28;20310;-80
2023/01/28 07:09:16;;;;;;;6.67;3.97;;;-1.70;99.90;;;;;;5000053;28;20225;-80
2023/01/28 07:11:43;;;;;;;6.87;3.73;;;-1.70;99.90;;;;;;5005956;28;20234;-80
2023/01/28 07:14:09;;;;;;;5.87;3.40;;;-1.70;99.90;;;;;;5016500;28;20317;-78
2023/01/28 07:16:36;;;;;;;7.43;3.57;;;-1.80;99.90;;;;;;4997435;28;20232;-79
2023/01/28 07:19:03;;;;;;;6.10;3.50;;;-1.80;99.90;;;;;;4997102;28;20311;-80
2023/01/28 07:21:32;;;;;;;3.83;3.23;;;-1.90;99.90;;;;;;5003961;28;20224;-80
2023/01/28 07:23:59;;;;;;;5.13;2.80;;;-1.90;99.90;;;;;;4999389;28;20219;-80
2023/01/28 07:26:26;;;;;;;7.80;3.63;;;-1.90;99.90;;;;;;4995538;28;20236;-78
2023/01/28 07:28:52;;;;;;;6.97;4.17;;;-1.90;99.90;;;;;;5001650;28;20247;-79
2023/01/28 07:31:19;;;;;;;10.30;5.60;;;-1.90;99.90;;;;;;5004338;28;20257;-79
2023/01/28 07:33:49;;;;;;;9.63;5.70;;;-1.90;99.90;;;;;;4997031;28;20333;-78
2023/01/28 07:36:15;;;;;;;10.60;6.17;;;-1.90;99.90;;;;;;5002092;28;20231;-78
2023/01/28 07:38:44;;;;;;;8.20;6.13;;;-1.80;99.90;;;;;;5000601;28;20320;-81
2023/01/28 07:41:10;;;;;;;10.93;6.17;;;-1.80;99.90;;;;;;4998612;28;20292;-81
2023/01/28 07:43:37;;;;;;;8.07;5.70;;;-1.80;99.90;;;;;;4998492;28;20228;-82
2023/01/28 07:46:04;;;;;;;8.63;6.20;;;-1.70;99.90;;;;;;4994031;28;20313;-82
2023/01/28 07:48:31;;;;;;;11.17;7.50;;;-1.70;99.90;;;;;;4980687;28;20230;-81
2023/01/28 07:50:58;;;;;;;9.83;6.93;;;-1.70;99.90;;;;;;4995612;28;20913;-81
2023/01/28 07:53:25;;;;;;;9.23;6.93;;;-1.70;99.90;;;;;;4995777;28;20236;-81
2023/01/28 07:55:58;;;;;;;10.93;7.27;;;-1.70;99.90;;;;;;4995201;28;20235;-83
2023/01/28 07:58:25;;;;;;;10.67;7.40;;;-1.70;99.90;;;;;;4995324;28;20236;-84
2023/01/28 08:00:57;;;;;;;10.50;7.50;;;-1.70;99.90;;;;;;4997995;28;20235;-83
2023/01/28 08:03:23;;;;;;;9.93;7.10;;;-1.70;99.90;;;;;;4997039;28;20678;-83
2023/01/28 08:05:52;;;;;;;9.77;7.40;;;-1.70;99.90;;;;;;5011374;28;20248;-83
2023/01/28 08:08:21;;;;;;;8.77;7.00;;;-1.70;99.90;;;;;;4996368;28;20225;-81
2023/01/28 08:10:48;;;;;;;10.73;7.83;;;-1.70;99.90;;;;;;4997237;28;20224;-80
2023/01/28 08:13:17;;;;;;;10.93;8.13;;;-1.70;99.90;;;;;;4996839;28;20217;-81
2023/01/28 08:15:44;;;;;;;10.07;7.60;;;-1.70;99.90;;;;;;4992794;28;20228;-84
2023/01/28 08:18:12;;;;;;;10.83;7.93;;;-1.60;99.90;;;;;;4997845;28;20250;-83
2023/01/28 08:20:41;;;;;;;11.27;7.80;;;-1.60;99.90;;;;;;4994236;28;20221;-83
2023/01/28 08:23:11;;;;;;;9.30;7.40;;;-1.50;99.90;;;;;;4998546;28;20219;-83
2023/01/28 08:25:37;;;;;;;11.67;7.63;;;-1.50;99.90;;;;;;4999272;28;20228;-81
2023/01/28 08:28:08;;;;;;;13.07;9.40;;;-1.50;99.90;;;;;;4995114;28;20239;-80
2023/01/28 08:30:37;;;;;;;11.60;7.93;;;-1.50;99.90;;;;;;5000389;28;20218;-81
2023/01/28 08:33:05;;;;;;;12.47;9.27;;;-1.40;99.90;;;;;;4997204;28;20721;-82
2023/01/28 08:35:33;;;;;;;13.33;9.30;;;-1.30;99.90;;;;;;5001887;28;20722;-82
2023/01/28 08:38:01;;;;;;;11.33;8.77;;;-1.10;99.90;;;;;;4997616;28;20229;-81
2023/01/28 08:40:28;;;;;;;13.43;8.73;;;-0.90;99.90;;;;;;5000248;28;20231;-82
2023/01/28 08:42:55;;;;;;;10.17;8.37;;;-0.60;99.90;;;;;;5004559;28;20219;-82
2023/01/28 08:45:24;;;;;;;11.63;8.20;;;-0.20;99.90;;;;;;4998379;28;20235;-80
2023/01/28 08:47:54;;;;;;;9.77;7.77;;;0.20;99.90;;;;;;4995171;28;20226;-80
2023/01/28 08:50:22;;;;;;;9.33;7.90;;;0.80;99.90;;;;;;4996222;28;20949;-79
2023/01/28 08:52:55;;;;;;;9.47;7.63;;;1.30;99.90;;;;;;4996445;28;20244;-79
2023/01/28 08:55:25;;;;;;;24.07;21.57;;;1.90;99.90;;;;;;4996720;28;20721;-80
2023/01/28 08:57:52;;;;;;;58.10;48.63;;;2.50;99.90;;;;;;4999122;28;20238;-80
2023/01/28 09:00:22;;;;;;;21.33;18.63;;;3.00;99.90;;;;;;4998010;28;20229;-79
2023/01/28 09:02:52;;;;;;;10.13;9.03;;;3.30;99.90;;;;;;4993603;28;20229;-78
2023/01/28 09:05:20;;;;;;;9.17;7.97;;;3.40;99.90;;;;;;4986229;28;20744;-79
2023/01/28 09:07:47;;;;;;;9.03;6.93;;;3.40;99.90;;;;;;4999290;28;20232;-79
2023/01/28 09:10:19;;;;;;;8.03;6.93;;;3.20;99.90;;;;;;5003365;28;20224;-79
2023/01/28 09:12:46;;;;;;;8.53;6.90;;;3.00;99.90;;;;;;5000037;28;20224;-78
2023/01/28 09:15:13;;;;;;;10.27;6.90;;;2.70;99.90;;;;;;4999101;28;21113;-79
2023/01/28 09:17:42;;;;;;;8.77;7.43;;;2.40;99.90;;;;;;5001436;28;20236;-78
2023/01/28 09:20:12;;;;;;;8.03;7.23;;;2.10;99.90;;;;;;5001334;28;20707;-78
2023/01/28 09:22:39;;;;;;;8.40;7.43;;;1.90;99.90;;;;;;5000914;28;20220;-78
2023/01/28 09:25:06;;;;;;;8.80;7.73;;;1.80;99.90;;;;;;4997510;28;20837;-79
2023/01/28 09:27:33;;;;;;;10.63;7.13;;;1.90;99.90;;;;;;4995473;28;20233;-78
2023/01/28 09:30:00;;;;;;;10.37;7.47;;;2.20;99.90;;;;;;4993448;28;20717;-78
2023/01/28 09:32:27;;;;;;;7.53;6.73;;;2.50;99.90;;;;;;4991542;28;20225;-78
2023/01/28 09:34:53;;;;;;;9.27;6.70;;;3.10;99.90;;;;;;5004162;28;20791;-78
2023/01/28 09:37:21;;;;;;;8.53;6.50;;;3.70;99.90;;;;;;5001135;28;20227;-78
2023/01/28 09:39:48;;;;;;;8.00;6.43;;;4.30;99.90;;;;;;5001792;28;20239;-78
2023/01/28 09:42:31;;;;;;;8.60;6.20;;;5.00;99.90;;;;;;5005225;28;20311;-78
2023/01/28 09:45:06;;;;;;;7.70;6.10;;;5.50;99.90;;;;;;4992230;28;20234;-78
2023/01/28 09:47:38;;;;;;;8.00;6.57;;;6.10;99.90;;;;;;5005674;28;20312;-78
2023/01/28 09:50:13;;;;;;;7.33;5.80;;;6.50;99.90;;;;;;4999818;28;20312;-78
2023/01/28 09:52:44;;;;;;;9.00;5.93;;;6.90;99.90;;;;;;5006004;28;20655;-78
2023/01/28 09:55:19;;;;;;;7.63;5.53;;;7.20;99.90;;;;;;5001910;28;20232;-78
2023/01/28 09:57:50;;;;;;;5.70;4.60;;;7.40;99.90;;;;;;5001930;28;20238;-78
2023/01/28 10:00:22;;;;;;;7.33;5.83;;;7.40;99.70;;;;;;4997279;28;20224;-78
2023/01/28 10:03:08;;;;;;;8.20;6.17;;;7.40;99.80;;;;;;5003365;28;20225;-78
2023/01/28 10:05:45;;;;;;;6.87;5.40;;;7.30;98.00;;;;;;5003082;28;20235;-78
2023/01/28 10:08:30;;;;;;;8.67;5.17;;;7.30;98.80;;;;;;5000440;28;20223;-78
2023/01/28 10:11:03;;;;;;;6.50;5.40;;;7.30;98.40;;;;;;5006012;28;20249;-78
2023/01/28 10:13:40;;;;;;;5.30;4.70;;;7.40;99.30;;;;;;4996772;28;20258;-78
2023/01/28 10:16:18;;;;;;;5.37;4.87;;;7.50;99.00;;;;;;5000942;28;20219;-78
2023/01/28 10:18:48;;;;;;;6.93;4.77;;;7.70;98.90;;;;;;5001449;28;20233;-78
2023/01/28 10:21:21;;;;;;;4.73;4.33;;;7.90;98.90;;;;;;4997465;28;20752;-78
2023/01/28 10:24:00;;;;;;;6.87;4.70;;;8.10;98.60;;;;;;5004582;28;20217;-78
2023/01/28 10:26:33;;;;;;;6.70;5.73;;;8.40;98.10;;;;;;5003969;28;20233;-78
2023/01/28 10:29:09;;;;;;;6.47;5.20;;;8.60;98.20;;;;;;5005804;28;20238;-79
2023/01/28 10:31:40;;;;;;;6.53;5.07;;;8.70;96.70;;;;;;4996639;28;20250;-78
2023/01/28 10:34:06;;;;;;;5.87;4.57;;;8.80;95.60;;;;;;4993398;28;20261;-79
2023/01/28 10:36:34;;;;;;;5.30;4.80;;;8.90;96.80;;;;;;4996536;28;20594;-78
2023/01/28 10:39:02;;;;;;;5.97;4.93;;;9.00;96.10;;;;;;5003791;28;20706;-79
2023/01/28 10:41:29;;;;;;;6.37;4.90;;;9.10;96.10;;;;;;5000369;28;20224;-78
2023/01/28 10:43:57;;;;;;;6.17;4.80;;;9.20;96.40;;;;;;5001923;28;20238;-79
2023/01/28 10:46:28;;;;;;;5.60;4.30;;;9.20;95.60;;;;;;4996231;28;20241;-78
2023/01/28 10:49:01;;;;;;;5.10;4.10;;;9.20;95.40;;;;;;5001730;28;20258;-79
2023/01/28 10:51:35;;;;;;;5.73;4.10;;;9.20;94.30;;;;;;4997013;28;20315;-79
2023/01/28 10:54:17;;;;;;;5.70;4.30;;;9.00;94.10;;;;;;4990976;28;20215;-79
2023/01/28 10:56:44;;;;;;;5.40;4.90;;;8.90;94.00;;;;;;4998901;28;20235;-78
2023/01/28 10:59:26;;;;;;;5.60;4.47;;;8.60;92.40;;;;;;4992588;28;20249;-79
2023/01/28 11:01:55;;;;;;;5.57;4.60;;;8.30;92.80;;;;;;4998797;28;20226;-78
2023/01/28 11:04:25;;;;;;;6.90;5.10;;;8.10;93.60;;;;;;5002767;28;20222;-78
2023/01/28 11:06:57;;;;;;;5.43;4.67;;;8.00;93.60;;;;;;5005487;28;20232;-79
2023/01/28 11:09:28;;;;;;;6.10;4.27;;;7.70;93.10;;;;;;5000544;28;20747;-78
2023/01/28 11:11:57;;;;;;;7.03;4.53;;;7.50;93.90;;;;;;4998877;28;20433;-78
2023/01/28 11:14:26;;;;;;;5.57;4.83;;;7.20;93.00;;;;;;5003670;28;20227;-79
2023/01/28 11:16:55;;;;;;;5.83;5.17;;;6.90;92.70;;;;;;5003405;28;20654;-79
2023/01/28 11:19:30;;;;;;;8.47;5.33;;;6.70;94.20;;;;;;5005595;28;20248;-78
2023/01/28 11:21:58;;;;;;;8.23;5.13;;;6.60;95.00;;;;;;4995889;28;20234;-78
2023/01/28 11:24:29;;;;;;;5.77;4.87;;;6.60;95.20;;;;;;5005169;28;20240;-79
2023/01/28 11:26:58;;;;;;;6.43;4.90;;;6.50;94.40;;;;;;5000333;28;20703;-78
2023/01/28 11:29:30;;;;;;;6.83;5.60;;;6.50;95.20;;;;;;4998752;28;20229;-78
2023/01/28 11:31:58;;;;;;;5.50;4.47;;;6.40;94.50;;;;;;5004081;28;20233;-79
2023/01/28 11:34:27;;;;;;;5.50;4.60;;;6.40;95.60;;;;;;5000144;28;20584;-78
2023/01/28 11:37:00;;;;;;;5.43;4.83;;;6.40;95.90;;;;;;5002987;28;20226;-78
2023/01/28 11:39:29;;;;;;;6.10;4.70;;;6.40;95.80;;;;;;5000801;28;20634;-78
2023/01/28 11:42:04;;;;;;;6.57;5.00;;;6.40;96.50;;;;;;5004718;28;20229;-78
2023/01/28 11:44:31;;;;;;;6.80;5.17;;;6.50;96.30;;;;;;4993222;28;20233;-78
2023/01/28 11:47:10;;;;;;;5.40;4.87;;;6.60;96.70;;;;;;5004721;28;20897;-78
2023/01/28 11:49:49;;;;;;;5.10;4.60;;;6.60;96.00;;;;;;5004888;28;20263;-78
2023/01/28 11:52:24;;;;;;;8.30;5.27;;;6.70;95.70;;;;;;5015062;28;20771;-78
2023/01/28 11:55:17;;;;;;;6.13;5.00;;;6.70;95.80;;;;;;5001218;28;20304;-78
2023/01/28 11:57:53;;;;;;;6.07;4.63;;;6.70;95.40;;;;;;4998397;28;20255;-78
2023/01/28 12:00:33;;;;;;;6.13;4.50;;;6.60;95.00;;;;;;5000945;28;20229;-78
2023/01/28 12:03:23;;;;;;;6.17;4.63;;;6.40;95.50;;;;;;4992744;28;20250;-78
2023/01/28 12:05:53;;;;;;;6.07;5.07;;;6.30;96.00;;;;;;4998058;28;20231;-78
2023/01/28 12:08:23;;;;;;;6.17;4.90;;;6.30;96.50;;;;;;5004919;28;20236;-78
2023/01/28 12:11:09;;;;;;;9.33;5.53;;;6.30;96.40;;;;;;5002091;28;20795;-78
2023/01/28 12:14:05;;;;;;;5.73;5.20;;;6.20;96.00;;;;;;4999550;28;20718;-79
2023/01/28 12:16:50;;;;;;;9.30;7.03;;;6.10;95.60;;;;;;4998630;28;20218;-78
2023/01/28 12:19:41;;;;;;;9.17;5.33;;;6.10;95.80;;;;;;4993384;28;20837;-78
2023/01/28 12:22:23;;;;;;;9.53;5.47;;;6.00;96.00;;;;;;4996253;28;20227;-78
2023/01/28 12:25:19;;;;;;;7.80;6.03;;;6.00;96.20;;;;;;4998355;28;20721;-78
2023/01/28 12:27:55;;;;;;;7.20;5.80;;;5.90;96.10;;;;;;4994810;28;20247;-79
2023/01/28 12:30:35;;;;;;;7.83;6.27;;;5.90;96.50;;;;;;4993609;28;20228;-78
2023/01/28 12:33:29;;;;;;;10.00;6.47;;;5.90;96.10;;;;;;4996553;28;20229;-80
2023/01/28 12:36:06;;;;;;;7.23;6.00;;;5.80;96.00;;;;;;4992859;28;20232;-79
2023/01/28 12:38:44;;;;;;;9.13;5.50;;;5.70;96.30;;;;;;4991265;28;20245;-79
2023/01/28 12:41:14;;;;;;;7.23;5.53;;;5.60;96.30;;;;;;5001437;28;20970;-79
2023/01/28 12:43:53;;;;;;;8.67;5.30;;;5.50;96.40;;;;;;4990513;28;20315;-78
2023/01/28 12:46:38;;;;;;;6.57;5.73;;;5.40;96.50;;;;;;4992547;28;20239;-79
2023/01/28 12:49:09;;;;;;;7.90;6.37;;;5.40;96.70;;;;;;4998324;28;20235;-79
2023/01/28 12:51:49;;;;;;;6.50;5.73;;;5.30;96.70;;;;;;5001061;28;20242;-79
2023/01/28 12:54:21;;;;;;;9.13;6.37;;;5.30;97.00;;;;;;5000081;28;20235;-79
2023/01/28 12:56:54;;;;;;;7.73;6.60;;;5.30;97.30;;;;;;5001024;28;20227;-79
2023/01/28 12:59:30;;;;;;;7.07;6.37;;;5.40;97.40;;;;;;4999033;28;20371;-79
2023/01/28 13:02:09;;;;;;;9.57;6.50;;;5.40;97.30;;;;;;4994223;28;20225;-79
2023/01/28 13:04:42;;;;;;;6.67;6.07;;;5.40;97.40;;;;;;4990632;28;20234;-79
2023/01/28 13:07:15;;;;;;;6.83;5.77;;;5.50;97.70;;;;;;4997399;28;20647;-79
2023/01/28 13:09:53;;;;;;;6.47;5.80;;;5.50;97.50;;;;;;5004398;28;20724;-79
2023/01/28 13:12:21;;;;;;;7.37;5.97;;;5.50;97.20;;;;;;5006112;28;20229;-79
2023/01/28 13:14:49;;;;;;;8.47;5.97;;;5.50;97.30;;;;;;5010522;28;20228;-79
2023/01/28 13:17:27;;;;;;;9.37;6.23;;;5.40;97.20;;;;;;5003432;28;20225;-79
2023/01/28 13:19:53;;;;;;;8.47;6.80;;;5.30;97.10;;;;;;5016605;28;20250;-79
2023/01/28 13:22:28;;;;;;;8.90;6.70;;;5.20;97.30;;;;;;5002524;28;20274;-79
2023/01/28 13:24:55;;;;;;;8.60;6.67;;;5.00;97.10;;;;;;5006503;28;20231;-78
2023/01/28 13:27:24;;;;;;;7.40;6.67;;;4.90;97.40;;;;;;5008797;28;20233;-79
2023/01/28 13:30:06;;;;;;;10.17;6.80;;;4.70;97.50;;;;;;5005123;28;20226;-79
2023/01/28 13:32:35;;;;;;;9.33;6.73;;;4.50;97.60;;;;;;5005374;28;20234;-80
2023/01/28 13:35:04;;;;;;;7.97;6.70;;;4.40;97.90;;;;;;4996323;28;20235;-79
2023/01/28 13:37:34;;;;;;;8.17;6.67;;;4.30;98.20;;;;;;5000348;28;20227;-79
2023/01/28 13:40:08;;;;;;;9.70;7.17;;;4.20;98.20;;;;;;5011479;28;20301;-79
2023/01/28 13:42:36;;;;;;;9.33;6.60;;;4.20;98.20;;;;;;5000701;28;20233;-79